Time;durP1;ratioP1;P1;durP2;ratioP2;P2;SDS_P1;SDS_P2;PMS_P1;PMS_P2;Temp;Humidity;BMP_temperature;BMP_pressure;BME280_temperature;BME280_humidity;BME280_pressure;Samples;Min_cycle;Max_cycle;Signal;HPM_P1;HPM_P2
2021/10/25 00:01:19;;;;;;;126.82;15.20;;;;;;;;;;4987657;28;20038;-62
2021/10/25 00:03:46;;;;;;;161.65;17.33;;;;;;;;;;4986392;28;20417;-62
2021/10/25 00:06:13;;;;;;;152.10;16.35;;;;;;;;;;4985210;28;20022;-62
2021/10/25 00:08:40;;;;;;;111.60;15.98;;;;;;;;;;4986608;28;20036;-62
2021/10/25 00:11:07;;;;;;;135.25;16.38;;;;;;;;;;4989324;28;20021;-62
2021/10/25 00:13:34;;;;;;;123.45;15.65;;;;;;;;;;4985147;28;20072;-64
2021/10/25 00:16:02;;;;;;;124.13;16.58;;;;;;;;;;4990338;28;20026;-62
2021/10/25 00:18:29;;;;;;;106.15;13.55;;;;;;;;;;4988632;28;20027;-64
2021/10/25 00:20:56;;;;;;;122.68;15.80;;;;;;;;;;4989102;28;20018;-61
2021/10/25 00:23:25;;;;;;;133.05;14.85;;;;;;;;;;4984291;28;20145;-63
2021/10/25 00:25:52;;;;;;;110.75;15.88;;;;;;;;;;4983914;28;20038;-63
2021/10/25 00:28:19;;;;;;;106.63;15.05;;;;;;;;;;4988046;28;20042;-62
2021/10/25 00:30:46;;;;;;;111.07;14.65;;;;;;;;;;4989365;28;20030;-63
2021/10/25 00:33:13;;;;;;;112.05;15.40;;;;;;;;;;4994027;28;20018;-65
2021/10/25 00:35:40;;;;;;;125.47;14.52;;;;;;;;;;4985415;28;20022;-61
2021/10/25 00:38:07;;;;;;;112.85;14.27;;;;;;;;;;4990645;28;20486;-62
2021/10/25 00:40:34;;;;;;;103.63;13.20;;;;;;;;;;4984302;28;20027;-62
2021/10/25 00:43:01;;;;;;;116.75;16.75;;;;;;;;;;4989258;28;20486;-61
2021/10/25 00:45:28;;;;;;;107.28;13.90;;;;;;;;;;4989201;28;20092;-61
2021/10/25 00:47:57;;;;;;;98.45;13.63;;;;;;;;;;4994225;28;20416;-62
2021/10/25 00:50:24;;;;;;;118.10;14.65;;;;;;;;;;4986838;28;20114;-62
2021/10/25 00:52:52;;;;;;;113.55;14.77;;;;;;;;;;4988269;28;20044;-62
2021/10/25 00:55:19;;;;;;;116.78;15.38;;;;;;;;;;4983649;28;20096;-61
2021/10/25 00:57:46;;;;;;;105.30;14.57;;;;;;;;;;4987219;28;20062;-62
2021/10/25 01:00:13;;;;;;;104.70;13.73;;;;;;;;;;4992936;28;20030;-62
2021/10/25 01:02:40;;;;;;;92.30;13.88;;;;;;;;;;4986078;28;20030;-61
2021/10/25 01:05:08;;;;;;;106.28;14.13;;;;;;;;;;4988536;28;20379;-62
2021/10/25 01:07:36;;;;;;;116.55;14.73;;;;;;;;;;4988598;28;20721;-62
2021/10/25 01:10:04;;;;;;;101.78;13.45;;;;;;;;;;4983586;28;20087;-62
2021/10/25 01:12:32;;;;;;;107.55;13.98;;;;;;;;;;4984619;28;20022;-61
2021/10/25 01:14:59;;;;;;;103.32;13.65;;;;;;;;;;4992900;28;20371;-62
2021/10/25 01:17:27;;;;;;;93.05;12.80;;;;;;;;;;4990244;28;20038;-62
2021/10/25 01:19:58;;;;;;;93.55;13.57;;;;;;;;;;4990091;28;20492;-62
2021/10/25 01:22:26;;;;;;;105.93;15.32;;;;;;;;;;4990110;28;20045;-62
2021/10/25 01:24:58;;;;;;;92.25;13.27;;;;;;;;;;4986849;28;20030;-62
2021/10/25 01:27:25;;;;;;;69.53;11.15;;;;;;;;;;4994232;28;20117;-62
2021/10/25 01:29:52;;;;;;;73.68;13.25;;;;;;;;;;4990284;28;20022;-63
2021/10/25 01:32:19;;;;;;;82.10;13.30;;;;;;;;;;4990830;28;20029;-61
2021/10/25 01:34:47;;;;;;;77.47;12.40;;;;;;;;;;4996651;28;20014;-61
2021/10/25 01:37:16;;;;;;;88.07;12.90;;;;;;;;;;4987665;28;20029;-61
2021/10/25 01:39:43;;;;;;;81.63;13.00;;;;;;;;;;4995050;28;20033;-62
2021/10/25 01:42:10;;;;;;;67.43;11.05;;;;;;;;;;4989779;28;20022;-62
2021/10/25 01:44:39;;;;;;;70.93;11.40;;;;;;;;;;4989914;28;20038;-60
2021/10/25 01:47:06;;;;;;;75.20;11.35;;;;;;;;;;4997110;28;20385;-63
2021/10/25 01:49:33;;;;;;;64.55;11.40;;;;;;;;;;4993361;28;20019;-63
2021/10/25 01:52:00;;;;;;;60.38;10.30;;;;;;;;;;4997318;28;20019;-61
2021/10/25 01:54:28;;;;;;;78.68;11.98;;;;;;;;;;4995246;28;20410;-61
2021/10/25 01:56:55;;;;;;;75.85;11.90;;;;;;;;;;4989633;28;20038;-60
2021/10/25 01:59:22;;;;;;;66.55;10.45;;;;;;;;;;4988554;28;20034;-62
2021/10/25 02:01:49;;;;;;;65.43;10.50;;;;;;;;;;5000858;28;20013;-62
2021/10/25 02:04:17;;;;;;;73.90;10.35;;;;;;;;;;4994640;28;20033;-61
2021/10/25 02:06:44;;;;;;;64.40;10.05;;;;;;;;;;4997421;28;20037;-59
2021/10/25 02:09:11;;;;;;;63.65;10.98;;;;;;;;;;4991929;28;20018;-61
2021/10/25 02:11:38;;;;;;;49.35;8.68;;;;;;;;;;5009059;28;20030;-63
2021/10/25 02:14:05;;;;;;;67.03;9.77;;;;;;;;;;5011658;28;20018;-62
2021/10/25 02:16:33;;;;;;;72.90;10.27;;;;;;;;;;5009993;28;20032;-62
2021/10/25 02:19:00;;;;;;;59.25;10.43;;;;;;;;;;5011550;28;20508;-62
2021/10/25 02:21:27;;;;;;;63.72;10.35;;;;;;;;;;5011750;28;20022;-62
2021/10/25 02:23:54;;;;;;;52.05;10.10;;;;;;;;;;5010606;28;20029;-62
2021/10/25 02:26:21;;;;;;;50.53;7.82;;;;;;;;;;5011354;28;20484;-63
2021/10/25 02:28:48;;;;;;;46.30;8.30;;;;;;;;;;5012657;28;20018;-62
2021/10/25 02:31:16;;;;;;;52.65;9.77;;;;;;;;;;5012923;28;20104;-62
2021/10/25 02:33:43;;;;;;;49.45;7.78;;;;;;;;;;5011253;28;20026;-62
2021/10/25 02:36:11;;;;;;;43.08;7.10;;;;;;;;;;5011748;28;20021;-62
2021/10/25 02:38:40;;;;;;;46.50;7.25;;;;;;;;;;5012740;28;20084;-61
2021/10/25 02:41:08;;;;;;;39.17;7.20;;;;;;;;;;5012069;28;20048;-62
2021/10/25 02:43:35;;;;;;;33.30;6.90;;;;;;;;;;5013069;28;20137;-62
2021/10/25 02:46:03;;;;;;;33.03;5.97;;;;;;;;;;5013118;28;20022;-62
2021/10/25 02:48:31;;;;;;;35.95;6.57;;;;;;;;;;5013616;28;20381;-63
2021/10/25 02:50:58;;;;;;;32.03;6.93;;;;;;;;;;5013384;28;20018;-62
2021/10/25 02:53:25;;;;;;;31.08;6.28;;;;;;;;;;5013501;28;20029;-62
2021/10/25 02:55:52;;;;;;;37.45;6.35;;;;;;;;;;5012942;28;20025;-62
2021/10/25 02:58:19;;;;;;;32.03;7.13;;;;;;;;;;5013725;28;20033;-64
2021/10/25 03:00:46;;;;;;;31.70;5.60;;;;;;;;;;5013184;28;20034;-62
2021/10/25 03:03:13;;;;;;;31.70;5.55;;;;;;;;;;5013466;28;20073;-62
2021/10/25 03:05:41;;;;;;;26.20;5.40;;;;;;;;;;5013314;28;20092;-62
2021/10/25 03:08:08;;;;;;;29.23;6.32;;;;;;;;;;5013202;28;20022;-63
2021/10/25 03:10:35;;;;;;;28.10;5.43;;;;;;;;;;5013099;28;20725;-64
2021/10/25 03:13:03;;;;;;;31.25;5.88;;;;;;;;;;5013023;28;20022;-62
2021/10/25 03:15:30;;;;;;;28.08;5.15;;;;;;;;;;5012974;28;20030;-62
2021/10/25 03:17:57;;;;;;;28.85;5.15;;;;;;;;;;5013155;28;20057;-62
2021/10/25 03:20:24;;;;;;;28.42;4.50;;;;;;;;;;5012972;28;20575;-62
2021/10/25 03:22:51;;;;;;;22.20;4.53;;;;;;;;;;5012882;28;20033;-62
2021/10/25 03:25:18;;;;;;;24.52;5.05;;;;;;;;;;5012837;28;20026;-62
2021/10/25 03:27:47;;;;;;;23.75;4.53;;;;;;;;;;5011698;28;20386;-62
2021/10/25 03:30:15;;;;;;;21.80;4.60;;;;;;;;;;5012885;28;20049;-61
2021/10/25 03:32:42;;;;;;;25.52;5.20;;;;;;;;;;5012932;28;20503;-62
2021/10/25 03:35:09;;;;;;;22.75;4.90;;;;;;;;;;5012930;28;20025;-62
2021/10/25 03:37:38;;;;;;;21.30;4.72;;;;;;;;;;5012644;28;20515;-62
2021/10/25 03:40:07;;;;;;;26.60;4.22;;;;;;;;;;5012652;28;20092;-62
2021/10/25 03:42:42;;;;;;;20.13;4.47;;;;;;;;;;5012421;28;20045;-62
2021/10/25 03:47:55;;;;;;;16.27;4.70;;;;;;;;;;5011773;28;20058;-62
2021/10/25 03:50:29;;;;;;;21.02;4.28;;;;;;;;;;5012284;28;20104;-61
2021/10/25 03:55:43;;;;;;;23.73;4.60;;;;;;;;;;5012791;28;20041;-63
2021/10/25 04:25:48;;;;;;;17.95;4.38;;;;;;;;;;5012237;28;20135;-61
2021/10/25 04:30:17;;;;;;;16.73;3.65;;;;;;;;;;5012353;28;20382;-62
2021/10/25 04:32:44;;;;;;;13.93;3.47;;;;;;;;;;5011750;28;20026;-62
2021/10/25 04:35:11;;;;;;;17.55;4.10;;;;;;;;;;5011970;28;20022;-62
2021/10/25 04:37:38;;;;;;;13.93;3.75;;;;;;;;;;5012222;28;20018;-62
2021/10/25 04:40:06;;;;;;;20.73;3.83;;;;;;;;;;5011780;28;20479;-62
2021/10/25 04:42:33;;;;;;;15.63;3.15;;;;;;;;;;5011568;28;20405;-62
2021/10/25 04:45:00;;;;;;;12.60;3.63;;;;;;;;;;5011705;28;20044;-62
2021/10/25 04:47:28;;;;;;;17.35;3.15;;;;;;;;;;5012067;28;20022;-62
2021/10/25 04:49:55;;;;;;;15.10;3.58;;;;;;;;;;5011978;28;20029;-62
2021/10/25 04:52:23;;;;;;;15.75;3.53;;;;;;;;;;5011888;28;20022;-62
2021/10/25 04:54:50;;;;;;;11.23;2.97;;;;;;;;;;5011676;28;20068;-62
2021/10/25 04:57:17;;;;;;;15.13;3.40;;;;;;;;;;5011868;28;20477;-62
2021/10/25 04:59:44;;;;;;;14.52;2.78;;;;;;;;;;5011671;28;20034;-62
2021/10/25 05:02:12;;;;;;;15.20;3.00;;;;;;;;;;5011567;28;20018;-62
2021/10/25 05:04:39;;;;;;;16.80;3.13;;;;;;;;;;5011560;28;20052;-62
2021/10/25 05:07:06;;;;;;;11.63;2.70;;;;;;;;;;5011908;28;20022;-62
2021/10/25 05:09:33;;;;;;;12.10;2.78;;;;;;;;;;5011717;28;20026;-62
2021/10/25 05:12:02;;;;;;;11.68;3.08;;;;;;;;;;5011611;28;20474;-62
2021/10/25 05:14:29;;;;;;;11.13;2.80;;;;;;;;;;5011645;28;20036;-62
2021/10/25 05:16:56;;;;;;;10.10;2.10;;;;;;;;;;5011648;28;20433;-62
2021/10/25 05:19:23;;;;;;;9.73;2.20;;;;;;;;;;5012267;28;20084;-62
2021/10/25 05:21:50;;;;;;;9.70;1.88;;;;;;;;;;5015322;28;20064;-62
2021/10/25 05:24:17;;;;;;;10.40;2.60;;;;;;;;;;5015125;28;20381;-62
2021/10/25 05:26:44;;;;;;;8.77;2.42;;;;;;;;;;5015204;28;20049;-62
2021/10/25 05:29:11;;;;;;;11.15;2.40;;;;;;;;;;5015172;28;20022;-62
2021/10/25 05:31:38;;;;;;;11.77;3.03;;;;;;;;;;5015259;28;20028;-62
2021/10/25 05:34:05;;;;;;;10.98;2.42;;;;;;;;;;5015091;28;20022;-62
2021/10/25 05:36:33;;;;;;;12.90;2.75;;;;;;;;;;5015038;28;20022;-62
2021/10/25 05:39:00;;;;;;;13.10;2.47;;;;;;;;;;5015162;28;20022;-62
2021/10/25 05:41:28;;;;;;;8.90;2.47;;;;;;;;;;5013710;28;20029;-62
2021/10/25 05:43:56;;;;;;;10.90;2.83;;;;;;;;;;5014569;28;20064;-62
2021/10/25 05:46:23;;;;;;;11.02;2.67;;;;;;;;;;5014939;28;20033;-62
2021/10/25 05:48:52;;;;;;;12.65;2.65;;;;;;;;;;5014827;28;20022;-61
2021/10/25 05:51:19;;;;;;;7.35;2.17;;;;;;;;;;5014710;28;20031;-62
2021/10/25 05:53:46;;;;;;;10.65;2.22;;;;;;;;;;5014728;28;20018;-62
2021/10/25 05:56:14;;;;;;;9.25;2.95;;;;;;;;;;5014503;28;20033;-62
2021/10/25 05:58:42;;;;;;;9.75;2.40;;;;;;;;;;5014446;28;20080;-62
2021/10/25 06:01:15;;;;;;;11.40;2.47;;;;;;;;;;5014720;28;20113;-62
2021/10/25 06:03:43;;;;;;;9.45;1.90;;;;;;;;;;5014285;28;20549;-62
2021/10/25 06:06:10;;;;;;;13.20;2.47;;;;;;;;;;5014379;28;20022;-61
2021/10/25 06:08:39;;;;;;;11.68;2.53;;;;;;;;;;5014572;28;20462;-62
2021/10/25 06:11:07;;;;;;;12.63;2.35;;;;;;;;;;5014301;28;20133;-61
2021/10/25 06:13:38;;;;;;;10.40;2.45;;;;;;;;;;5014257;28;20021;-62
2021/10/25 06:16:14;;;;;;;11.35;2.90;;;;;;;;;;5014369;28;20025;-62
2021/10/25 06:18:42;;;;;;;6.85;1.90;;;;;;;;;;5014358;28;20097;-62
2021/10/25 06:21:09;;;;;;;10.65;2.10;;;;;;;;;;5013947;28;20032;-62
2021/10/25 06:23:37;;;;;;;10.48;2.10;;;;;;;;;;5013852;28;20396;-62
2021/10/25 06:26:05;;;;;;;10.07;2.17;;;;;;;;;;5014045;28;20429;-62
2021/10/25 06:28:32;;;;;;;10.38;2.05;;;;;;;;;;5014111;28;20055;-61
2021/10/25 06:31:09;;;;;;;8.23;1.88;;;;;;;;;;5013084;28;20034;-62
2021/10/25 06:33:42;;;;;;;7.75;2.00;;;;;;;;;;5013937;28;20206;-64
2021/10/25 06:36:09;;;;;;;9.82;2.90;;;;;;;;;;5013822;28;20029;-62
2021/10/25 06:38:42;;;;;;;11.98;2.47;;;;;;;;;;5013917;28;20048;-62
2021/10/25 06:41:09;;;;;;;6.07;1.58;;;;;;;;;;5013678;28;20038;-62
2021/10/25 06:43:36;;;;;;;9.60;2.22;;;;;;;;;;5013462;28;20052;-62
2021/10/25 06:46:05;;;;;;;8.75;2.30;;;;;;;;;;5013846;28;20098;-62
2021/10/25 06:48:31;;;;;;;7.65;1.70;;;;;;;;;;5013594;28;20025;-62
2021/10/25 06:50:59;;;;;;;8.05;1.50;;;;;;;;;;5013362;28;20026;-62
2021/10/25 06:53:26;;;;;;;6.72;1.60;;;;;;;;;;5013599;28;20018;-61
2021/10/25 06:55:53;;;;;;;4.13;1.70;;;;;;;;;;5013493;28;20053;-62
2021/10/25 06:58:21;;;;;;;6.32;1.90;;;;;;;;;;5013499;28;20065;-63
2021/10/25 07:00:49;;;;;;;7.80;1.73;;;;;;;;;;5013374;28;20034;-62
2021/10/25 07:03:16;;;;;;;6.20;1.52;;;;;;;;;;5013206;28;20041;-62
2021/10/25 07:05:43;;;;;;;8.13;1.77;;;;;;;;;;5011863;28;20080;-64
2021/10/25 07:08:13;;;;;;;8.65;2.10;;;;;;;;;;5013406;28;20018;-62
2021/10/25 07:10:40;;;;;;;11.85;2.17;;;;;;;;;;5012998;28;20382;-62
2021/10/25 07:13:08;;;;;;;12.43;2.25;;;;;;;;;;5013187;28;20470;-62
2021/10/25 07:15:38;;;;;;;7.22;1.58;;;;;;;;;;5013153;28;20026;-61
2021/10/25 07:18:14;;;;;;;7.95;1.50;;;;;;;;;;5013236;28;20065;-62
2021/10/25 07:20:57;;;;;;;9.88;2.03;;;;;;;;;;5013001;28;20018;-63
2021/10/25 08:12:00;;;;;;;7.00;1.23;;;;;;;;;;4992707;28;20383;-62
2021/10/25 08:14:33;;;;;;;8.30;1.52;;;;;;;;;;4991512;28;20462;-61
2021/10/25 08:17:01;;;;;;;10.95;1.30;;;;;;;;;;4992558;28;20044;-62
2021/10/25 08:19:32;;;;;;;4.95;1.40;;;;;;;;;;4992588;28;20015;-62
2021/10/25 08:22:04;;;;;;;4.40;1.07;;;;;;;;;;4992404;28;20386;-62
2021/10/25 08:24:32;;;;;;;11.50;1.53;;;;;;;;;;4992574;28;20292;-62
2021/10/25 08:27:00;;;;;;;5.53;1.15;;;;;;;;;;4992620;28;20022;-62
2021/10/25 08:29:27;;;;;;;10.50;1.70;;;;;;;;;;4992503;28;20105;-62
2021/10/25 08:32:20;;;;;;;6.70;1.08;;;;;;;;;;4992258;28;20026;-62
2021/10/25 08:40:05;;;;;;;6.05;1.17;;;;;;;;;;4992576;28;20041;-62
2021/10/25 08:42:34;;;;;;;6.40;1.45;;;;;;;;;;4992116;28;20046;-62
2021/10/25 08:45:11;;;;;;;6.93;1.25;;;;;;;;;;4992267;28;20060;-62
2021/10/25 08:47:41;;;;;;;9.32;1.63;;;;;;;;;;4992164;28;20022;-62
2021/10/25 08:50:10;;;;;;;9.23;1.30;;;;;;;;;;4992220;28;20062;-62
2021/10/25 08:52:37;;;;;;;11.52;1.30;;;;;;;;;;4992317;28;20081;-62
2021/10/25 08:55:05;;;;;;;6.22;1.38;;;;;;;;;;4994326;28;20030;-62
2021/10/25 08:57:33;;;;;;;6.07;1.00;;;;;;;;;;4996260;28;20034;-62
2021/10/25 09:00:01;;;;;;;7.47;1.70;;;;;;;;;;4996247;28;20011;-62
2021/10/25 09:02:30;;;;;;;7.28;0.85;;;;;;;;;;4996026;28;20049;-62
2021/10/25 09:05:01;;;;;;;8.40;0.90;;;;;;;;;;4995740;28;20034;-62
2021/10/25 09:07:29;;;;;;;4.20;1.13;;;;;;;;;;4995874;28;20073;-62
2021/10/25 09:09:56;;;;;;;6.65;1.02;;;;;;;;;;4996135;28;20007;-62
2021/10/25 09:12:24;;;;;;;4.57;1.10;;;;;;;;;;4995850;28;20029;-62
2021/10/25 09:15:01;;;;;;;3.47;0.95;;;;;;;;;;4995914;28;20109;-62
2021/10/25 09:17:28;;;;;;;5.78;1.50;;;;;;;;;;4995952;28;20026;-61
2021/10/25 09:19:59;;;;;;;5.85;1.23;;;;;;;;;;4995703;28;20019;-62
2021/10/25 09:22:26;;;;;;;6.35;1.20;;;;;;;;;;4995649;28;20492;-62
2021/10/25 09:24:54;;;;;;;9.75;1.42;;;;;;;;;;4995764;28;20041;-62
2021/10/25 09:27:32;;;;;;;10.23;1.25;;;;;;;;;;4995808;28;20026;-62
2021/10/25 09:30:09;;;;;;;7.35;1.23;;;;;;;;;;4995623;28;20097;-62
2021/10/25 09:32:36;;;;;;;7.68;0.98;;;;;;;;;;4995130;28;20019;-61
2021/10/25 09:35:05;;;;;;;6.15;1.42;;;;;;;;;;5012292;28;20034;-62
2021/10/25 09:37:40;;;;;;;4.93;0.88;;;;;;;;;;5014917;28;20030;-62
2021/10/25 09:40:14;;;;;;;6.35;1.25;;;;;;;;;;5014767;28;20093;-62
2021/10/25 09:45:44;;;;;;;7.40;1.20;;;;;;;;;;5002325;28;20085;-62
2021/10/25 09:50:54;;;;;;;11.40;1.60;;;;;;;;;;5013955;28;20109;-61
2021/10/25 09:53:35;;;;;;;7.30;1.27;;;;;;;;;;5013922;28;20465;-61
2021/10/25 09:56:02;;;;;;;8.63;1.10;;;;;;;;;;5013978;28;20125;-61
2021/10/25 09:58:42;;;;;;;9.35;1.20;;;;;;;;;;5014116;28;20033;-62
2021/10/25 10:01:11;;;;;;;6.32;1.10;;;;;;;;;;5014279;28;20022;-63
2021/10/25 10:03:38;;;;;;;4.85;1.20;;;;;;;;;;5014343;28;20029;-61
2021/10/25 10:06:05;;;;;;;10.75;1.38;;;;;;;;;;5013431;28;20033;-62
2021/10/25 10:08:33;;;;;;;5.43;0.82;;;;;;;;;;5013336;28;20029;-62
2021/10/25 10:11:00;;;;;;;6.38;1.00;;;;;;;;;;5014367;28;20032;-62
2021/10/25 10:13:28;;;;;;;9.43;1.30;;;;;;;;;;5014609;28;20024;-62
2021/10/25 10:15:58;;;;;;;4.53;1.30;;;;;;;;;;5014295;28;20025;-62
2021/10/25 10:18:30;;;;;;;6.55;1.20;;;;;;;;;;5014249;28;20049;-62
2021/10/25 10:21:00;;;;;;;9.77;1.02;;;;;;;;;;5013957;28;20057;-62
2021/10/25 10:23:27;;;;;;;5.28;1.10;;;;;;;;;;5014160;28;20018;-62
2021/10/25 10:26:01;;;;;;;10.93;1.35;;;;;;;;;;5013992;28;20105;-62
2021/10/25 10:28:40;;;;;;;10.05;1.67;;;;;;;;;;5013950;28;20018;-62
2021/10/25 10:31:10;;;;;;;9.23;1.70;;;;;;;;;;5013910;28;20478;-62
2021/10/25 10:33:43;;;;;;;9.48;1.08;;;;;;;;;;5013915;28;20022;-62
2021/10/25 10:36:13;;;;;;;7.25;1.20;;;;;;;;;;5013932;28;20026;-62
2021/10/25 10:38:47;;;;;;;12.02;1.38;;;;;;;;;;5013862;28;20022;-62
2021/10/25 10:41:18;;;;;;;10.95;1.40;;;;;;;;;;5013733;28;20026;-62
2021/10/25 10:44:04;;;;;;;7.18;1.30;;;;;;;;;;5013486;28;20042;-62
2021/10/25 10:46:51;;;;;;;15.18;2.35;;;;;;;;;;5013809;28;20099;-62
2021/10/25 10:49:39;;;;;;;8.20;1.20;;;;;;;;;;5013620;28;20022;-62
2021/10/25 10:52:22;;;;;;;11.68;1.58;;;;;;;;;;5003357;28;20034;-62
2021/10/25 10:55:03;;;;;;;5.80;1.20;;;;;;;;;;5013434;28;20030;-62
2021/10/25 11:00:29;;;;;;;9.32;1.63;;;;;;;;;;5013816;28;20041;-62
2021/10/25 11:02:57;;;;;;;12.10;1.70;;;;;;;;;;5013515;28;20110;-62
2021/10/25 11:05:41;;;;;;;18.52;1.42;;;;;;;;;;5013287;28;20485;-63
2021/10/25 11:08:08;;;;;;;14.82;1.60;;;;;;;;;;5013096;28;20515;-62
2021/10/25 11:10:37;;;;;;;8.07;1.90;;;;;;;;;;5013223;28;20018;-62
2021/10/25 11:13:06;;;;;;;8.80;1.27;;;;;;;;;;5013316;28;20064;-61
2021/10/25 11:15:51;;;;;;;9.32;1.33;;;;;;;;;;5013165;28;20018;-62
2021/10/25 11:18:18;;;;;;;8.00;1.33;;;;;;;;;;5012928;28;20030;-61
2021/10/25 11:20:45;;;;;;;8.27;1.10;;;;;;;;;;5011785;28;20533;-62
2021/10/25 11:23:12;;;;;;;10.60;1.55;;;;;;;;;;5013010;28;20101;-62
2021/10/25 11:25:41;;;;;;;14.23;1.30;;;;;;;;;;5012981;28;20037;-63
2021/10/25 11:28:28;;;;;;;11.82;1.75;;;;;;;;;;5012723;28;20029;-61
2021/10/25 11:31:02;;;;;;;10.80;1.30;;;;;;;;;;5012969;28;20533;-62
2021/10/25 11:33:29;;;;;;;6.93;1.17;;;;;;;;;;5012936;28;20381;-62
2021/10/25 11:35:57;;;;;;;10.02;1.50;;;;;;;;;;5013020;28;20104;-62
2021/10/25 11:38:26;;;;;;;10.05;1.10;;;;;;;;;;5012698;28;20026;-62
2021/10/25 11:40:53;;;;;;;9.20;1.20;;;;;;;;;;5012264;28;20162;-62
2021/10/25 11:43:28;;;;;;;5.32;1.10;;;;;;;;;;5012485;28;20078;-62
2021/10/25 11:45:55;;;;;;;5.93;1.17;;;;;;;;;;5012729;28;20037;-63
2021/10/25 11:48:31;;;;;;;9.57;1.35;;;;;;;;;;5012816;28;20022;-62
2021/10/25 11:51:02;;;;;;;7.43;1.30;;;;;;;;;;5012498;28;20033;-62
2021/10/25 11:53:30;;;;;;;8.23;1.23;;;;;;;;;;5012477;28;20029;-62
2021/10/25 11:55:57;;;;;;;17.88;1.33;;;;;;;;;;5011364;28;20104;-62
2021/10/25 11:58:27;;;;;;;9.98;1.35;;;;;;;;;;5012007;28;20048;-59
2021/10/25 12:00:55;;;;;;;19.02;1.80;;;;;;;;;;4989290;28;20026;-59
2021/10/25 12:03:26;;;;;;;16.80;1.63;;;;;;;;;;4993324;28;20035;-60
2021/10/25 12:05:55;;;;;;;21.55;1.48;;;;;;;;;;5010796;28;20037;-60
2021/10/25 12:08:22;;;;;;;10.80;1.27;;;;;;;;;;4994505;28;20037;-61
2021/10/25 12:10:52;;;;;;;11.63;1.27;;;;;;;;;;4991071;28;20455;-60
2021/10/25 12:13:19;;;;;;;9.60;1.48;;;;;;;;;;4992551;28;20033;-59
2021/10/25 12:15:55;;;;;;;15.80;1.80;;;;;;;;;;4999933;28;20105;-60
2021/10/25 12:18:22;;;;;;;22.80;2.30;;;;;;;;;;4992241;28;20781;-60
2021/10/25 12:20:50;;;;;;;15.55;1.50;;;;;;;;;;4990524;28;20548;-59
2021/10/25 12:23:18;;;;;;;14.27;1.60;;;;;;;;;;4999801;28;20034;-59
2021/10/25 12:25:52;;;;;;;12.60;1.70;;;;;;;;;;5010995;28;20136;-61
2021/10/25 12:28:20;;;;;;;21.83;1.75;;;;;;;;;;4990181;28;20092;-60
2021/10/25 12:30:50;;;;;;;11.07;2.10;;;;;;;;;;4991008;28;20024;-60
2021/10/25 12:33:22;;;;;;;8.50;1.10;;;;;;;;;;4992686;28;21068;-60
2021/10/25 12:35:49;;;;;;;21.93;2.17;;;;;;;;;;4991635;28;20457;-59
2021/10/25 12:38:20;;;;;;;11.00;1.23;;;;;;;;;;4995535;28;20478;-58
2021/10/25 12:41:08;;;;;;;12.65;1.95;;;;;;;;;;4999101;28;20035;-61
2021/10/25 12:43:41;;;;;;;19.05;1.80;;;;;;;;;;4990316;28;20093;-55
2021/10/25 12:46:11;;;;;;;20.55;2.15;;;;;;;;;;4993906;28;20038;-59
2021/10/25 12:48:50;;;;;;;11.70;1.77;;;;;;;;;;4990640;28;20105;-59
2021/10/25 12:51:19;;;;;;;19.48;1.30;;;;;;;;;;4990873;28;20026;-60
2021/10/25 12:53:47;;;;;;;10.02;1.38;;;;;;;;;;4989220;28;20022;-57
2021/10/25 12:56:25;;;;;;;11.18;1.25;;;;;;;;;;4997242;28;20022;-47
2021/10/25 12:59:10;;;;;;;14.32;1.80;;;;;;;;;;4971264;28;20105;-60
2021/10/25 13:01:37;;;;;;;12.23;1.50;;;;;;;;;;4971953;28;20027;-59
2021/10/25 13:04:06;;;;;;;14.38;1.70;;;;;;;;;;4970856;28;20038;-56
2021/10/25 13:06:35;;;;;;;11.80;1.40;;;;;;;;;;4970623;28;20394;-61
2021/10/25 13:09:06;;;;;;;7.50;1.20;;;;;;;;;;4971159;28;20029;-64
2021/10/25 13:11:35;;;;;;;9.13;1.63;;;;;;;;;;4971998;28;20023;-60
2021/10/25 13:14:02;;;;;;;10.63;1.40;;;;;;;;;;4971462;28;20019;-61
2021/10/25 13:16:32;;;;;;;17.70;1.17;;;;;;;;;;4974150;28;20109;-62
2021/10/25 13:18:59;;;;;;;10.80;1.83;;;;;;;;;;4990563;28;20018;-50
2021/10/25 13:21:29;;;;;;;11.13;1.50;;;;;;;;;;4989482;28;20493;-58
2021/10/25 13:23:56;;;;;;;15.63;2.05;;;;;;;;;;4990686;28;20034;-62
2021/10/25 13:26:26;;;;;;;16.85;1.60;;;;;;;;;;4990912;28;20034;-60
2021/10/25 13:28:53;;;;;;;14.13;1.70;;;;;;;;;;4988818;28;20094;-59
2021/10/25 13:31:20;;;;;;;25.75;2.25;;;;;;;;;;4989721;28;20027;-62
2021/10/25 13:33:47;;;;;;;24.05;2.17;;;;;;;;;;4991430;28;20026;-60
2021/10/25 13:36:16;;;;;;;18.48;1.80;;;;;;;;;;4974619;28;20078;-58
2021/10/25 13:38:43;;;;;;;19.45;1.55;;;;;;;;;;4992657;28;20030;-52
2021/10/25 13:41:10;;;;;;;11.90;1.65;;;;;;;;;;4991899;28;20029;-61
2021/10/25 13:43:38;;;;;;;13.52;1.63;;;;;;;;;;4993984;28;20034;-70
2021/10/25 13:46:05;;;;;;;25.05;2.33;;;;;;;;;;4994420;28;20478;-57
2021/10/25 13:48:32;;;;;;;23.48;2.25;;;;;;;;;;4992213;28;20026;-61
2021/10/25 13:50:59;;;;;;;24.55;2.42;;;;;;;;;;4978110;28;20023;-62
2021/10/25 13:53:28;;;;;;;18.80;1.80;;;;;;;;;;4991312;28;20108;-46
2021/10/25 13:55:56;;;;;;;20.48;1.83;;;;;;;;;;5004970;28;20032;-50
2021/10/25 13:58:23;;;;;;;21.58;2.13;;;;;;;;;;5013918;28;20056;-53
2021/10/25 14:00:50;;;;;;;32.42;2.65;;;;;;;;;;5011815;28;20026;-52
2021/10/25 14:03:20;;;;;;;31.50;2.10;;;;;;;;;;5010990;28;20038;-48
2021/10/25 14:05:48;;;;;;;30.75;1.80;;;;;;;;;;5004625;28;20038;-54
2021/10/25 14:08:16;;;;;;;29.70;1.80;;;;;;;;;;4990161;28;20038;-51
2021/10/25 14:10:45;;;;;;;28.88;2.33;;;;;;;;;;4993141;28;20058;-46
2021/10/25 14:13:18;;;;;;;24.13;2.35;;;;;;;;;;4993636;28;20470;-48
2021/10/25 14:15:56;;;;;;;20.15;1.90;;;;;;;;;;4994497;28;20049;-57
2021/10/25 14:18:23;;;;;;;34.55;3.20;;;;;;;;;;5003373;28;20037;-52
2021/10/25 14:20:50;;;;;;;23.23;2.28;;;;;;;;;;5011054;28;20025;-54
2021/10/25 14:23:17;;;;;;;27.75;2.47;;;;;;;;;;4996226;28;20026;-53
2021/10/25 14:25:44;;;;;;;19.15;1.85;;;;;;;;;;4993072;28;20066;-46
2021/10/25 14:28:11;;;;;;;23.20;2.45;;;;;;;;;;4986521;28;20068;-46
2021/10/25 14:30:38;;;;;;;20.00;1.90;;;;;;;;;;4984043;28;20106;-47
2021/10/25 14:33:07;;;;;;;21.75;2.20;;;;;;;;;;4988265;28;20027;-48
2021/10/25 14:35:34;;;;;;;21.92;2.30;;;;;;;;;;4988870;28;20023;-46
2021/10/25 14:38:02;;;;;;;26.42;2.45;;;;;;;;;;4989651;28;20861;-49
2021/10/25 14:43:18;;;;;;;24.98;2.47;;;;;;;;;;4988513;28;20049;-51
2021/10/25 14:45:55;;;;;;;14.30;2.42;;;;;;;;;;4993543;28;20482;-49
2021/10/25 14:48:41;;;;;;;19.42;1.92;;;;;;;;;;4992306;28;20018;-46
2021/10/25 14:53:58;;;;;;;25.83;2.72;;;;;;;;;;5010059;28;20045;-45
2021/10/25 14:56:26;;;;;;;20.30;2.53;;;;;;;;;;5011940;28;20029;-47
2021/10/25 14:58:53;;;;;;;21.02;2.63;;;;;;;;;;5010442;28;20033;-46
2021/10/25 15:01:23;;;;;;;31.35;2.80;;;;;;;;;;5011991;28;20437;-52
2021/10/25 15:03:50;;;;;;;24.05;3.15;;;;;;;;;;5003895;28;20031;-53
2021/10/25 15:06:17;;;;;;;20.38;3.38;;;;;;;;;;5008374;28;20396;-51
2021/10/25 15:08:44;;;;;;;30.38;4.03;;;;;;;;;;5011550;28;20033;-57
2021/10/25 15:11:14;;;;;;;29.30;3.55;;;;;;;;;;5011458;28;20054;-51
2021/10/25 15:13:41;;;;;;;27.40;2.95;;;;;;;;;;5012057;28;20033;-58
2021/10/25 15:16:08;;;;;;;40.95;4.20;;;;;;;;;;5012347;28;20052;-51
2021/10/25 15:18:35;;;;;;;41.30;3.13;;;;;;;;;;5012182;28;20026;-49
2021/10/25 15:21:03;;;;;;;32.38;3.90;;;;;;;;;;5010501;28;20386;-53
2021/10/25 15:23:30;;;;;;;26.67;3.08;;;;;;;;;;5011879;28;20474;-49
2021/10/25 15:25:57;;;;;;;31.50;3.15;;;;;;;;;;5011804;28;20038;-54
2021/10/25 15:28:25;;;;;;;22.38;3.30;;;;;;;;;;5011482;28;20022;-54
2021/10/25 15:30:52;;;;;;;37.35;4.07;;;;;;;;;;5010938;28;20436;-58
2021/10/25 15:33:20;;;;;;;30.95;4.38;;;;;;;;;;5011276;28;20429;-50
2021/10/25 15:35:51;;;;;;;32.17;5.30;;;;;;;;;;5012172;28;20042;-52
2021/10/25 15:38:18;;;;;;;44.47;8.05;;;;;;;;;;5012240;28;20030;-51
2021/10/25 15:40:45;;;;;;;37.22;9.23;;;;;;;;;;5010810;28;20108;-47
2021/10/25 15:43:12;;;;;;;44.83;11.63;;;;;;;;;;5011201;28;20147;-48
2021/10/25 15:45:39;;;;;;;45.38;12.32;;;;;;;;;;4994492;28;20049;-47
2021/10/25 15:48:06;;;;;;;44.47;11.88;;;;;;;;;;4997689;28;20500;-48
2021/10/25 15:50:34;;;;;;;52.58;14.23;;;;;;;;;;5011633;28;20021;-51
2021/10/25 15:53:02;;;;;;;50.30;12.15;;;;;;;;;;5010620;28;20502;-50
2021/10/25 15:55:30;;;;;;;57.22;12.68;;;;;;;;;;4999782;28;20517;-51
2021/10/25 15:57:57;;;;;;;48.10;12.07;;;;;;;;;;4993697;28;20032;-47
2021/10/25 16:00:25;;;;;;;53.78;11.48;;;;;;;;;;5007536;28;20033;-55
2021/10/25 16:02:52;;;;;;;45.85;11.27;;;;;;;;;;4991959;28;20108;-55
2021/10/25 16:05:21;;;;;;;49.40;11.30;;;;;;;;;;5002142;28;20033;-53
2021/10/25 16:07:51;;;;;;;64.63;12.55;;;;;;;;;;5011980;28;20101;-50
2021/10/25 16:10:18;;;;;;;46.83;10.68;;;;;;;;;;5011704;28;20025;-58
2021/10/25 16:12:47;;;;;;;44.65;9.90;;;;;;;;;;5011671;28;20018;-59
2021/10/25 16:15:15;;;;;;;42.95;9.77;;;;;;;;;;5010110;28;20033;-48
2021/10/25 16:17:42;;;;;;;37.67;8.88;;;;;;;;;;5010254;28;20057;-49
2021/10/25 16:20:10;;;;;;;32.90;8.88;;;;;;;;;;5011190;28;20068;-57
2021/10/25 16:22:38;;;;;;;39.00;8.35;;;;;;;;;;5011316;28;20058;-64